NSZ4380 LGRP-ESSA
Flight info
| Callsign | NSZ4380 |
|---|---|
| Flight time | 3h 56m |
| Altitude | 34000 |
| Route | VANES M601 ETERU UM601 ADESO UN133 RIGRO DCT STINO DCT ATFIR N133 USALI DCT LOMOS DCT OVDOT/N0450F360 DCT BUXLE DCT MEGIK DCT NARKA DCT KSC DCT KOJOT DCT RAZEC DCT LENOV/N0431F320 DCT ORTEB/N0442F360 DCT OVBOR DCT NUBLI DCT ADOXO DCT BIBKA DCT IRLUN N133 PENOR DCT ARMOD/N0436F370 Z228 NILUG |
| Aircraft | B738/M-SDE2E3GHIJ1LRWXY/LB1 |
Departure
| Time | 2026-05-01 08:16 |
|---|---|
| Airport | Rhodes International Airport "Diagoras" (LGRP) |
Arrival
| Time | 2026-05-01 12:13 |
|---|---|
| Airport | Stockholm-Arlanda Airport (ESSA) |
| Time | Latitude | Longitude | Altitude | Speed | Heading |
|---|---|---|---|---|---|
| 2026-05-01 07:51 | 36.40366 | 28.09137 | 27 ft | 0 kts | 160° |
| 2026-05-01 07:51 | 36.40368 | 28.09136 | 27 ft | 0 kts | 160° |
| 2026-05-01 08:08 | 36.40403 | 28.09115 | 27 ft | 4 kts | 140° |
| 2026-05-01 08:09 | 36.40420 | 28.09074 | 27 ft | 0 kts | 70° |
| 2026-05-01 08:12 | 36.40423 | 28.09086 | 27 ft | 3 kts | 70° |
| 2026-05-01 08:12 | 36.40450 | 28.09179 | 27 ft | 10 kts | 70° |
| 2026-05-01 08:13 | 36.40479 | 28.09278 | 27 ft | 14 kts | 70° |
| 2026-05-01 08:13 | 36.40544 | 28.09377 | 27 ft | 17 kts | 33° |
| 2026-05-01 08:13 | 36.40665 | 28.09676 | 27 ft | 23 kts | 70° |
| 2026-05-01 08:14 | 36.40722 | 28.09871 | 27 ft | 25 kts | 70° |
| 2026-05-01 08:14 | 36.40785 | 28.10087 | 27 ft | 28 kts | 70° |
| 2026-05-01 08:14 | 36.40850 | 28.10310 | 27 ft | 27 kts | 70° |
| 2026-05-01 08:14 | 36.40905 | 28.10435 | 27 ft | 12 kts | 24° |
| 2026-05-01 08:15 | 36.40977 | 28.10403 | 26 ft | 11 kts | 313° |
| 2026-05-01 08:15 | 36.41010 | 28.10224 | 26 ft | 11 kts | 250° |
| 2026-05-01 08:15 | 36.40970 | 28.10087 | 30 ft | 38 kts | 250° |
| 2026-05-01 08:16 | 36.40788 | 28.09470 | 29 ft | 112 kts | 250° |
| 2026-05-01 08:16 | 36.40451 | 28.08313 | 41 ft | 171 kts | 249° |
| 2026-05-01 08:16 | 36.40037 | 28.06896 | 817 ft | 171 kts | 252° |
| 2026-05-01 08:16 | 36.39766 | 28.05442 | 1544 ft | 184 kts | 268° |
| 2026-05-01 08:17 | 36.39665 | 28.03729 | 1852 ft | 212 kts | 268° |
| 2026-05-01 08:17 | 36.39539 | 28.01816 | 2257 ft | 228 kts | 266° |
| 2026-05-01 08:17 | 36.39400 | 27.99778 | 2750 ft | 247 kts | 266° |
| 2026-05-01 08:17 | 36.39252 | 27.97622 | 3525 ft | 252 kts | 265° |
| 2026-05-01 08:18 | 36.39104 | 27.95465 | 4492 ft | 251 kts | 265° |
| 2026-05-01 08:18 | 36.38810 | 27.91137 | 6302 ft | 252 kts | 265° |
| 2026-05-01 08:19 | 36.38513 | 27.86764 | 7902 ft | 258 kts | 265° |
| 2026-05-01 08:19 | 36.38362 | 27.84537 | 8687 ft | 260 kts | 265° |
| 2026-05-01 08:19 | 36.38209 | 27.82294 | 9388 ft | 267 kts | 265° |
| 2026-05-01 08:19 | 36.38052 | 27.79995 | 10176 ft | 269 kts | 265° |
| 2026-05-01 08:20 | 36.37920 | 27.77599 | 10483 ft | 290 kts | 270° |
| 2026-05-01 08:20 | 36.38143 | 27.75008 | 10669 ft | 313 kts | 278° |
| 2026-05-01 08:20 | 36.38529 | 27.72253 | 10886 ft | 333 kts | 279° |
| 2026-05-01 08:20 | 36.38928 | 27.69381 | 11434 ft | 340 kts | 278° |
| 2026-05-01 08:21 | 36.39317 | 27.66474 | 12173 ft | 342 kts | 278° |
| 2026-05-01 08:21 | 36.39699 | 27.63557 | 12977 ft | 343 kts | 278° |
| 2026-05-01 08:21 | 36.40074 | 27.60628 | 13740 ft | 346 kts | 278° |
| 2026-05-01 08:21 | 36.40450 | 27.57664 | 14425 ft | 349 kts | 278° |
| 2026-05-01 08:22 | 36.40826 | 27.54670 | 15113 ft | 353 kts | 278° |
| 2026-05-01 08:22 | 36.41204 | 27.51650 | 15829 ft | 355 kts | 278° |
| 2026-05-01 08:22 | 36.41583 | 27.48606 | 16509 ft | 359 kts | 277° |
| 2026-05-01 08:22 | 36.41965 | 27.45530 | 17213 ft | 361 kts | 277° |
| 2026-05-01 08:23 | 36.42349 | 27.42426 | 17929 ft | 364 kts | 277° |
| 2026-05-01 08:23 | 36.42736 | 27.39297 | 18526 ft | 369 kts | 277° |
| 2026-05-01 08:23 | 36.43126 | 27.36136 | 19106 ft | 372 kts | 277° |
| 2026-05-01 08:23 | 36.43518 | 27.32953 | 19723 ft | 374 kts | 277° |
| 2026-05-01 08:24 | 36.43911 | 27.29752 | 20324 ft | 376 kts | 277° |
| 2026-05-01 08:24 | 36.44306 | 27.26531 | 20917 ft | 378 kts | 277° |
| 2026-05-01 08:24 | 36.44702 | 27.23288 | 21476 ft | 381 kts | 277° |
| 2026-05-01 08:24 | 36.45101 | 27.20019 | 21998 ft | 384 kts | 277° |
| 2026-05-01 08:25 | 36.45502 | 27.16722 | 22515 ft | 387 kts | 277° |
| 2026-05-01 08:25 | 36.45905 | 27.13405 | 23086 ft | 389 kts | 277° |
| 2026-05-01 08:25 | 36.46303 | 27.10121 | 23605 ft | 391 kts | 278° |
| 2026-05-01 08:25 | 36.46708 | 27.06772 | 24046 ft | 393 kts | 278° |
| 2026-05-01 08:26 | 36.47123 | 27.03379 | 24548 ft | 393 kts | 278° |
| 2026-05-01 08:26 | 36.47544 | 27.00027 | 25046 ft | 392 kts | 278° |
| 2026-05-01 08:26 | 36.47963 | 26.96711 | 25511 ft | 393 kts | 278° |
| 2026-05-01 08:26 | 36.48383 | 26.93357 | 25926 ft | 394 kts | 278° |
| 2026-05-01 08:27 | 36.48804 | 26.89975 | 26338 ft | 396 kts | 278° |
| 2026-05-01 08:27 | 36.49212 | 26.86583 | 26783 ft | 396 kts | 278° |
| 2026-05-01 08:27 | 36.49607 | 26.83200 | 27257 ft | 395 kts | 278° |
| 2026-05-01 08:27 | 36.49997 | 26.79814 | 27680 ft | 396 kts | 278° |
| 2026-05-01 08:28 | 36.50389 | 26.76421 | 28057 ft | 397 kts | 278° |
| 2026-05-01 08:28 | 36.50781 | 26.73018 | 28422 ft | 398 kts | 278° |
| 2026-05-01 08:28 | 36.51175 | 26.69611 | 28932 ft | 396 kts | 278° |
| 2026-05-01 08:28 | 36.51564 | 26.66244 | 29620 ft | 389 kts | 278° |
| 2026-05-01 08:29 | 36.51945 | 26.62938 | 30282 ft | 383 kts | 278° |
| 2026-05-01 08:29 | 36.52316 | 26.59712 | 30725 ft | 381 kts | 279° |
| 2026-05-01 08:29 | 36.52806 | 26.56477 | 31050 ft | 382 kts | 288° |
| 2026-05-01 08:29 | 36.53983 | 26.53520 | 31474 ft | 382 kts | 300° |
| 2026-05-01 08:30 | 36.55614 | 26.50915 | 31999 ft | 382 kts | 308° |
| 2026-05-01 08:30 | 36.57595 | 26.48694 | 32418 ft | 388 kts | 319° |
| 2026-05-01 08:30 | 36.59973 | 26.47028 | 32783 ft | 395 kts | 326° |
| 2026-05-01 08:30 | 36.62461 | 26.45568 | 33162 ft | 395 kts | 327° |
| 2026-05-01 08:31 | 36.64967 | 26.44158 | 33573 ft | 393 kts | 327° |
| 2026-05-01 08:31 | 36.67455 | 26.42762 | 33986 ft | 391 kts | 327° |
| 2026-05-01 08:31 | 36.69924 | 26.41360 | 34304 ft | 389 kts | 327° |
| 2026-05-01 08:31 | 36.72384 | 26.39942 | 34506 ft | 391 kts | 327° |
| 2026-05-01 08:32 | 36.74861 | 26.38500 | 34736 ft | 393 kts | 326° |
| 2026-05-01 08:32 | 36.77330 | 26.37056 | 34975 ft | 393 kts | 326° |
| 2026-05-01 08:32 | 36.79808 | 26.35604 | 35213 ft | 393 kts | 326° |
| 2026-05-01 08:32 | 36.82286 | 26.34148 | 35426 ft | 394 kts | 326° |
| 2026-05-01 08:33 | 36.84764 | 26.32692 | 35643 ft | 395 kts | 327° |
| 2026-05-01 08:33 | 36.87250 | 26.31231 | 35873 ft | 395 kts | 327° |
| 2026-05-01 08:33 | 36.89743 | 26.29764 | 36029 ft | 397 kts | 327° |
| 2026-05-01 08:34 | 36.94750 | 26.26815 | 36034 ft | 401 kts | 327° |
| 2026-05-01 08:34 | 36.99769 | 26.23849 | 36075 ft | 395 kts | 326° |
| 2026-05-01 08:35 | 37.04704 | 26.20840 | 36052 ft | 395 kts | 326° |
| 2026-05-01 08:35 | 37.09653 | 26.17801 | 36044 ft | 396 kts | 326° |
| 2026-05-01 08:36 | 37.14614 | 26.14759 | 36042 ft | 397 kts | 326° |
| 2026-05-01 08:36 | 37.19587 | 26.11710 | 36047 ft | 398 kts | 326° |
| 2026-05-01 08:37 | 37.24565 | 26.08656 | 36047 ft | 398 kts | 326° |
| 2026-05-01 08:37 | 37.29554 | 26.05590 | 36061 ft | 400 kts | 326° |
| 2026-05-01 08:38 | 37.34550 | 26.02516 | 36052 ft | 400 kts | 326° |
| 2026-05-01 08:38 | 37.39552 | 25.99433 | 36057 ft | 401 kts | 326° |
| 2026-05-01 08:39 | 37.44560 | 25.96342 | 36057 ft | 401 kts | 326° |
| 2026-05-01 08:39 | 37.49564 | 25.93248 | 36057 ft | 400 kts | 326° |
| 2026-05-01 08:40 | 37.57083 | 25.88591 | 36069 ft | 402 kts | 326° |
| 2026-05-01 08:40 | 37.62334 | 25.86064 | 36089 ft | 412 kts | 335° |
| 2026-05-01 08:41 | 37.67845 | 25.84055 | 36072 ft | 412 kts | 335° |
| 2026-05-01 08:41 | 37.73353 | 25.82038 | 36072 ft | 412 kts | 335° |
| 2026-05-01 08:42 | 37.78861 | 25.79995 | 36073 ft | 412 kts | 335° |
| 2026-05-01 08:42 | 37.84358 | 25.77940 | 36076 ft | 412 kts | 335° |
| 2026-05-01 08:43 | 37.89851 | 25.75881 | 36083 ft | 412 kts | 335° |
| 2026-05-01 08:43 | 37.95348 | 25.73817 | 36096 ft | 411 kts | 335° |
| 2026-05-01 08:44 | 38.00808 | 25.71762 | 36089 ft | 413 kts | 335° |
| 2026-05-01 08:44 | 38.06317 | 25.69687 | 36088 ft | 413 kts | 335° |
| 2026-05-01 08:45 | 38.11841 | 25.67603 | 36087 ft | 414 kts | 335° |
| 2026-05-01 08:45 | 38.17357 | 25.65520 | 36095 ft | 414 kts | 335° |
| 2026-05-01 08:46 | 38.22896 | 25.63424 | 36134 ft | 415 kts | 335° |
| 2026-05-01 08:46 | 38.28445 | 25.61320 | 36111 ft | 416 kts | 335° |
| 2026-05-01 08:47 | 38.34007 | 25.59208 | 36104 ft | 417 kts | 335° |
| 2026-05-01 08:47 | 38.39585 | 25.57088 | 36107 ft | 418 kts | 335° |
| 2026-05-01 08:48 | 38.45166 | 25.54963 | 36142 ft | 419 kts | 335° |
| 2026-05-01 08:48 | 38.50727 | 25.52841 | 36129 ft | 420 kts | 335° |
| 2026-05-01 08:49 | 38.56344 | 25.50695 | 36120 ft | 421 kts | 335° |
| 2026-05-01 08:49 | 38.61965 | 25.48544 | 36118 ft | 422 kts | 335° |
| 2026-05-01 08:50 | 38.67596 | 25.46386 | 36130 ft | 422 kts | 335° |
| 2026-05-01 08:50 | 38.73235 | 25.44220 | 36145 ft | 424 kts | 335° |
| 2026-05-01 08:51 | 38.78894 | 25.42044 | 36140 ft | 425 kts | 335° |
| 2026-05-01 08:51 | 38.84562 | 25.39861 | 36141 ft | 425 kts | 335° |
| 2026-05-01 08:52 | 38.90231 | 25.37674 | 36145 ft | 425 kts | 335° |
| 2026-05-01 08:52 | 38.95905 | 25.35480 | 36160 ft | 426 kts | 335° |
| 2026-05-01 08:53 | 39.01546 | 25.33297 | 36158 ft | 426 kts | 335° |
| 2026-05-01 08:53 | 39.07259 | 25.31082 | 36163 ft | 426 kts | 335° |
| 2026-05-01 08:54 | 39.12898 | 25.28891 | 36159 ft | 426 kts | 335° |
| 2026-05-01 08:54 | 39.18581 | 25.26679 | 36182 ft | 426 kts | 335° |
| 2026-05-01 08:55 | 39.24254 | 25.24468 | 36175 ft | 426 kts | 335° |
| 2026-05-01 08:55 | 39.29929 | 25.22252 | 36180 ft | 425 kts | 335° |
| 2026-05-01 08:56 | 39.34638 | 25.20411 | 36179 ft | 425 kts | 335° |
| 2026-05-01 08:56 | 39.40303 | 25.18193 | 36178 ft | 426 kts | 336° |
| 2026-05-01 08:57 | 39.46894 | 25.15605 | 36189 ft | 426 kts | 336° |
| 2026-05-01 08:57 | 39.51640 | 25.13739 | 36197 ft | 426 kts | 336° |
| 2026-05-01 08:58 | 39.57317 | 25.11504 | 36201 ft | 426 kts | 335° |
| 2026-05-01 08:58 | 39.62603 | 25.08437 | 36215 ft | 416 kts | 324° |
| 2026-05-01 08:59 | 39.67656 | 25.04764 | 36207 ft | 417 kts | 324° |
| 2026-05-01 08:59 | 39.72722 | 25.01083 | 36218 ft | 418 kts | 324° |
| 2026-05-01 09:00 | 39.77817 | 24.97409 | 36213 ft | 418 kts | 325° |
| 2026-05-01 09:00 | 39.82915 | 24.93742 | 36212 ft | 419 kts | 325° |
| 2026-05-01 09:01 | 39.88022 | 24.90066 | 36223 ft | 420 kts | 325° |
| 2026-05-01 09:01 | 39.93106 | 24.86400 | 36223 ft | 421 kts | 325° |
| 2026-05-01 09:02 | 39.98229 | 24.82700 | 36219 ft | 421 kts | 325° |
| 2026-05-01 09:02 | 40.03360 | 24.78988 | 36225 ft | 421 kts | 325° |
| 2026-05-01 09:03 | 40.08483 | 24.75274 | 36225 ft | 421 kts | 325° |
| 2026-05-01 09:03 | 40.13609 | 24.71552 | 36232 ft | 421 kts | 325° |
| 2026-05-01 09:04 | 40.18725 | 24.67831 | 36236 ft | 421 kts | 325° |
| 2026-05-01 09:04 | 40.23836 | 24.64107 | 36234 ft | 420 kts | 325° |
| 2026-05-01 09:05 | 40.28944 | 24.60378 | 36234 ft | 420 kts | 325° |
| 2026-05-01 09:05 | 40.34016 | 24.56669 | 36240 ft | 420 kts | 325° |
| 2026-05-01 09:06 | 40.39125 | 24.52926 | 36243 ft | 421 kts | 325° |
| 2026-05-01 09:06 | 40.44238 | 24.49174 | 36241 ft | 421 kts | 325° |
| 2026-05-01 09:07 | 40.49355 | 24.45413 | 36241 ft | 422 kts | 325° |
| 2026-05-01 09:07 | 40.54478 | 24.41640 | 36236 ft | 422 kts | 325° |
| 2026-05-01 09:08 | 40.59605 | 24.37857 | 36253 ft | 423 kts | 326° |
| 2026-05-01 09:08 | 40.64742 | 24.34061 | 36243 ft | 424 kts | 326° |
| 2026-05-01 09:09 | 40.69896 | 24.30246 | 36240 ft | 424 kts | 326° |
| 2026-05-01 09:09 | 40.75009 | 24.26454 | 36238 ft | 425 kts | 326° |
| 2026-05-01 09:10 | 40.80163 | 24.22625 | 36236 ft | 425 kts | 326° |
| 2026-05-01 09:10 | 40.85319 | 24.18788 | 36243 ft | 425 kts | 326° |
| 2026-05-01 09:11 | 40.90473 | 24.14944 | 36228 ft | 425 kts | 326° |
| 2026-05-01 09:11 | 40.95631 | 24.11091 | 36233 ft | 425 kts | 326° |
| 2026-05-01 09:12 | 41.00780 | 24.07239 | 36227 ft | 425 kts | 326° |
| 2026-05-01 09:12 | 41.05934 | 24.03374 | 36241 ft | 426 kts | 326° |
| 2026-05-01 09:13 | 41.11064 | 23.99521 | 36230 ft | 427 kts | 326° |
| 2026-05-01 09:13 | 41.16241 | 23.95625 | 36228 ft | 428 kts | 326° |
| 2026-05-01 09:14 | 41.21424 | 23.91717 | 36228 ft | 428 kts | 326° |
| 2026-05-01 09:14 | 41.26601 | 23.87808 | 36216 ft | 428 kts | 326° |
| 2026-05-01 09:15 | 41.31777 | 23.83891 | 36238 ft | 428 kts | 326° |
| 2026-05-01 09:15 | 41.36962 | 23.79964 | 36229 ft | 429 kts | 327° |
| 2026-05-01 09:16 | 41.42591 | 23.77154 | 36241 ft | 437 kts | 343° |
| 2026-05-01 09:17 | 41.51734 | 23.75763 | 36255 ft | 442 kts | 350° |
| 2026-05-01 09:17 | 41.60920 | 23.74553 | 36237 ft | 442 kts | 350° |
| 2026-05-01 09:18 | 41.70048 | 23.73265 | 36252 ft | 442 kts | 349° |
| 2026-05-01 09:19 | 41.79216 | 23.71953 | 36262 ft | 442 kts | 350° |
| 2026-05-01 09:20 | 41.88381 | 23.70639 | 36263 ft | 441 kts | 350° |
| 2026-05-01 09:21 | 42.00593 | 23.68884 | 36266 ft | 441 kts | 350° |
| 2026-05-01 09:21 | 42.09735 | 23.67566 | 36272 ft | 440 kts | 350° |
| 2026-05-01 09:22 | 42.21902 | 23.65805 | 36278 ft | 439 kts | 351° |
| 2026-05-01 09:23 | 42.31013 | 23.64445 | 36275 ft | 438 kts | 348° |
| 2026-05-01 09:24 | 42.39943 | 23.62252 | 36272 ft | 437 kts | 346° |
| 2026-05-01 09:25 | 42.51880 | 23.59118 | 36272 ft | 437 kts | 346° |
| 2026-05-01 09:26 | 42.60846 | 23.56832 | 36288 ft | 437 kts | 346° |
| 2026-05-01 09:26 | 42.69817 | 23.54546 | 36288 ft | 437 kts | 346° |
| 2026-05-01 09:27 | 42.78799 | 23.52248 | 36290 ft | 438 kts | 347° |
| 2026-05-01 09:28 | 42.84789 | 23.50712 | 36301 ft | 438 kts | 347° |
| 2026-05-01 09:28 | 42.90785 | 23.49171 | 36310 ft | 439 kts | 347° |
| 2026-05-01 09:29 | 42.99792 | 23.46851 | 36330 ft | 439 kts | 347° |
| 2026-05-01 09:30 | 43.08785 | 23.44527 | 36341 ft | 439 kts | 347° |
| 2026-05-01 09:30 | 43.17786 | 23.42194 | 36342 ft | 439 kts | 347° |
| 2026-05-01 09:31 | 43.23796 | 23.40633 | 36346 ft | 439 kts | 347° |
| 2026-05-01 09:32 | 43.32802 | 23.38287 | 36363 ft | 439 kts | 348° |
| 2026-05-01 09:32 | 43.41789 | 23.35939 | 36354 ft | 438 kts | 348° |
| 2026-05-01 09:33 | 43.47764 | 23.34374 | 36352 ft | 437 kts | 348° |
| 2026-05-01 09:34 | 43.56673 | 23.32035 | 36359 ft | 436 kts | 348° |
| 2026-05-01 09:34 | 43.65597 | 23.29685 | 36350 ft | 435 kts | 348° |
| 2026-05-01 09:35 | 43.74505 | 23.27330 | 36357 ft | 434 kts | 348° |
| 2026-05-01 09:36 | 43.80440 | 23.25759 | 36353 ft | 434 kts | 348° |
| 2026-05-01 09:36 | 43.86337 | 23.23984 | 36344 ft | 434 kts | 345° |
| 2026-05-01 09:37 | 43.92144 | 23.21733 | 36346 ft | 433 kts | 343° |
| 2026-05-01 09:37 | 44.00843 | 23.18293 | 36346 ft | 433 kts | 344° |
| 2026-05-01 09:38 | 44.09562 | 23.14922 | 36335 ft | 433 kts | 344° |
| 2026-05-01 09:39 | 44.18268 | 23.11565 | 36346 ft | 433 kts | 344° |
| 2026-05-01 09:39 | 44.24068 | 23.09321 | 36339 ft | 433 kts | 344° |
| 2026-05-01 09:40 | 44.32779 | 23.05941 | 36335 ft | 433 kts | 344° |
| 2026-05-01 09:41 | 44.38591 | 23.03680 | 36321 ft | 433 kts | 345° |
| 2026-05-01 09:41 | 44.47295 | 23.00284 | 36327 ft | 433 kts | 345° |
| 2026-05-01 09:42 | 44.53108 | 22.98012 | 36326 ft | 433 kts | 345° |
| 2026-05-01 09:43 | 44.63744 | 22.93837 | 36335 ft | 433 kts | 345° |
| 2026-05-01 09:43 | 44.70495 | 22.91177 | 36320 ft | 434 kts | 345° |
| 2026-05-01 09:44 | 44.79204 | 22.87736 | 36320 ft | 433 kts | 345° |
| 2026-05-01 09:45 | 44.84068 | 22.85809 | 36322 ft | 433 kts | 345° |
| 2026-05-01 09:45 | 44.92763 | 22.82358 | 36314 ft | 432 kts | 345° |
| 2026-05-01 09:46 | 44.98546 | 22.80056 | 36307 ft | 432 kts | 345° |
| 2026-05-01 09:46 | 45.04323 | 22.77751 | 36291 ft | 431 kts | 345° |
| 2026-05-01 09:47 | 45.10053 | 22.75459 | 36301 ft | 430 kts | 345° |
| 2026-05-01 09:47 | 45.15801 | 22.73158 | 36305 ft | 429 kts | 345° |
| 2026-05-01 09:48 | 45.21553 | 22.70850 | 36296 ft | 429 kts | 345° |
| 2026-05-01 09:48 | 45.27289 | 22.68542 | 36304 ft | 428 kts | 345° |
| 2026-05-01 09:49 | 45.33023 | 22.66231 | 36303 ft | 429 kts | 345° |
| 2026-05-01 09:49 | 45.38761 | 22.63913 | 36289 ft | 428 kts | 346° |
| 2026-05-01 09:50 | 45.44491 | 22.61594 | 36305 ft | 428 kts | 346° |
| 2026-05-01 09:50 | 45.50217 | 22.59272 | 36309 ft | 428 kts | 346° |
| 2026-05-01 09:51 | 45.55955 | 22.56939 | 36300 ft | 428 kts | 346° |
| 2026-05-01 09:51 | 45.61682 | 22.54606 | 36313 ft | 428 kts | 346° |
| 2026-05-01 09:52 | 45.67417 | 22.52265 | 36307 ft | 429 kts | 346° |
| 2026-05-01 09:52 | 45.73147 | 22.49919 | 36291 ft | 429 kts | 346° |
| 2026-05-01 09:53 | 45.78874 | 22.47571 | 36312 ft | 428 kts | 347° |
| 2026-05-01 09:53 | 45.84595 | 22.45221 | 36308 ft | 427 kts | 346° |
| 2026-05-01 09:54 | 45.90303 | 22.42871 | 36308 ft | 427 kts | 346° |
| 2026-05-01 09:54 | 45.96005 | 22.40518 | 36312 ft | 426 kts | 346° |
| 2026-05-01 09:55 | 46.01696 | 22.38165 | 36315 ft | 426 kts | 347° |
| 2026-05-01 09:55 | 46.07388 | 22.35805 | 36295 ft | 425 kts | 347° |
| 2026-05-01 09:56 | 46.13059 | 22.33449 | 36310 ft | 424 kts | 347° |
| 2026-05-01 09:56 | 46.18714 | 22.31097 | 36312 ft | 423 kts | 347° |
| 2026-05-01 09:57 | 46.24362 | 22.28742 | 36318 ft | 422 kts | 347° |
| 2026-05-01 09:57 | 46.29969 | 22.26398 | 36308 ft | 422 kts | 347° |
| 2026-05-01 09:58 | 46.35638 | 22.24023 | 36316 ft | 421 kts | 347° |
| 2026-05-01 09:58 | 46.41224 | 22.21678 | 36287 ft | 421 kts | 347° |
| 2026-05-01 09:59 | 46.46841 | 22.19314 | 36290 ft | 420 kts | 348° |
| 2026-05-01 09:59 | 46.52424 | 22.16866 | 36315 ft | 419 kts | 347° |
| 2026-05-01 10:00 | 46.57990 | 22.14376 | 36324 ft | 419 kts | 347° |
| 2026-05-01 10:00 | 46.63566 | 22.11884 | 36329 ft | 419 kts | 347° |
| 2026-05-01 10:01 | 46.69149 | 22.09393 | 36330 ft | 421 kts | 347° |
| 2026-05-01 10:01 | 46.74755 | 22.06888 | 36330 ft | 421 kts | 347° |
| 2026-05-01 10:02 | 46.80357 | 22.04378 | 36329 ft | 421 kts | 347° |
| 2026-05-01 10:02 | 46.85965 | 22.01861 | 36344 ft | 421 kts | 347° |
| 2026-05-01 10:03 | 46.91545 | 21.99351 | 36344 ft | 422 kts | 347° |
| 2026-05-01 10:03 | 46.97155 | 21.96822 | 36347 ft | 421 kts | 347° |
| 2026-05-01 10:04 | 47.02754 | 21.94292 | 36348 ft | 421 kts | 347° |
| 2026-05-01 10:04 | 47.08341 | 21.91762 | 36342 ft | 420 kts | 347° |
| 2026-05-01 10:05 | 47.13909 | 21.89235 | 36346 ft | 418 kts | 348° |
| 2026-05-01 10:05 | 47.19467 | 21.86750 | 36344 ft | 414 kts | 352° |
| 2026-05-01 10:06 | 47.25105 | 21.85780 | 36352 ft | 407 kts | 358° |
| 2026-05-01 10:06 | 47.30620 | 21.83760 | 36350 ft | 413 kts | 349° |
| 2026-05-01 10:07 | 47.36138 | 21.81368 | 36349 ft | 412 kts | 349° |
| 2026-05-01 10:07 | 47.41650 | 21.79014 | 36349 ft | 412 kts | 349° |
| 2026-05-01 10:08 | 47.49921 | 21.75537 | 36332 ft | 411 kts | 351° |
| 2026-05-01 10:09 | 47.55388 | 21.73247 | 36341 ft | 411 kts | 351° |
| 2026-05-01 10:09 | 47.60883 | 21.70941 | 36348 ft | 410 kts | 351° |
| 2026-05-01 10:10 | 47.66389 | 21.68625 | 36350 ft | 410 kts | 351° |
| 2026-05-01 10:10 | 47.74618 | 21.65153 | 36352 ft | 410 kts | 351° |
| 2026-05-01 10:11 | 47.80096 | 21.62835 | 36351 ft | 409 kts | 351° |
| 2026-05-01 10:11 | 47.85572 | 21.60514 | 36358 ft | 409 kts | 351° |
| 2026-05-01 10:12 | 47.90992 | 21.58210 | 36355 ft | 407 kts | 351° |
| 2026-05-01 10:13 | 47.99138 | 21.54739 | 36351 ft | 405 kts | 351° |
| 2026-05-01 10:13 | 48.04541 | 21.52431 | 36353 ft | 403 kts | 351° |
| 2026-05-01 10:14 | 48.12627 | 21.48967 | 36350 ft | 402 kts | 351° |
| 2026-05-01 10:14 | 48.18000 | 21.46659 | 36357 ft | 402 kts | 351° |
| 2026-05-01 10:15 | 48.23372 | 21.44346 | 36352 ft | 401 kts | 351° |
| 2026-05-01 10:15 | 48.28742 | 21.42029 | 36358 ft | 401 kts | 351° |
| 2026-05-01 10:16 | 48.34115 | 21.39706 | 36350 ft | 402 kts | 351° |
| 2026-05-01 10:17 | 48.42173 | 21.36212 | 36359 ft | 402 kts | 351° |
| 2026-05-01 10:17 | 48.50210 | 21.32713 | 36358 ft | 400 kts | 351° |
| 2026-05-01 10:18 | 48.58242 | 21.29208 | 36348 ft | 401 kts | 351° |
| 2026-05-01 10:19 | 48.63598 | 21.26864 | 36345 ft | 400 kts | 351° |
| 2026-05-01 10:19 | 48.68953 | 21.24519 | 36352 ft | 401 kts | 352° |
| 2026-05-01 10:20 | 48.77068 | 21.21598 | 36347 ft | 400 kts | 354° |
| 2026-05-01 10:20 | 48.82494 | 21.19705 | 36356 ft | 401 kts | 354° |
| 2026-05-01 10:21 | 48.90661 | 21.16773 | 36336 ft | 403 kts | 353° |
| 2026-05-01 10:22 | 48.98829 | 21.13816 | 36339 ft | 402 kts | 353° |
| 2026-05-01 10:23 | 49.06950 | 21.10802 | 36335 ft | 400 kts | 353° |
| 2026-05-01 10:23 | 49.15021 | 21.07815 | 36336 ft | 399 kts | 353° |
| 2026-05-01 10:24 | 49.25810 | 21.03868 | 36341 ft | 398 kts | 353° |
| 2026-05-01 10:25 | 49.36598 | 20.99486 | 36338 ft | 404 kts | 347° |
| 2026-05-01 10:26 | 49.41843 | 20.96466 | 36313 ft | 405 kts | 346° |
| 2026-05-01 10:27 | 49.52382 | 20.90356 | 36347 ft | 405 kts | 347° |
| 2026-05-01 10:28 | 49.60317 | 20.85823 | 36342 ft | 406 kts | 347° |
| 2026-05-01 10:28 | 49.68263 | 20.81276 | 36342 ft | 407 kts | 347° |
| 2026-05-01 10:29 | 49.76228 | 20.76700 | 36353 ft | 407 kts | 347° |
| 2026-05-01 10:30 | 49.86835 | 20.70581 | 36346 ft | 407 kts | 346° |
| 2026-05-01 10:31 | 49.96549 | 20.64953 | 36332 ft | 407 kts | 346° |
| 2026-05-01 10:32 | 50.04515 | 20.60319 | 36343 ft | 407 kts | 346° |
| 2026-05-01 10:33 | 50.15141 | 20.54271 | 36332 ft | 405 kts | 347° |
| 2026-05-01 10:34 | 50.23145 | 20.50002 | 36328 ft | 405 kts | 347° |
| 2026-05-01 10:34 | 50.28486 | 20.47128 | 36334 ft | 406 kts | 347° |
| 2026-05-01 10:35 | 50.36493 | 20.42785 | 36333 ft | 406 kts | 347° |
| 2026-05-01 10:35 | 50.41835 | 20.39875 | 36327 ft | 406 kts | 347° |
| 2026-05-01 10:36 | 50.49839 | 20.35503 | 36334 ft | 406 kts | 347° |
| 2026-05-01 10:37 | 50.55172 | 20.32580 | 36322 ft | 406 kts | 347° |
| 2026-05-01 10:37 | 50.63176 | 20.28182 | 36330 ft | 406 kts | 347° |
| 2026-05-01 10:38 | 50.68483 | 20.25257 | 36324 ft | 407 kts | 347° |
| 2026-05-01 10:38 | 50.73822 | 20.22307 | 36326 ft | 407 kts | 347° |
| 2026-05-01 10:39 | 50.79167 | 20.19347 | 36326 ft | 407 kts | 347° |
| 2026-05-01 10:39 | 50.84501 | 20.16385 | 36323 ft | 406 kts | 347° |
| 2026-05-01 10:40 | 50.89832 | 20.13417 | 36296 ft | 406 kts | 347° |
| 2026-05-01 10:40 | 50.95157 | 20.10446 | 36326 ft | 405 kts | 347° |
| 2026-05-01 10:41 | 51.00473 | 20.07473 | 36328 ft | 405 kts | 346° |
| 2026-05-01 10:42 | 51.08456 | 20.02995 | 36330 ft | 406 kts | 346° |
| 2026-05-01 10:42 | 51.13794 | 20.00099 | 36327 ft | 405 kts | 348° |
| 2026-05-01 10:43 | 51.19157 | 19.97389 | 36322 ft | 404 kts | 348° |
| 2026-05-01 10:43 | 51.24517 | 19.94666 | 36325 ft | 405 kts | 348° |
| 2026-05-01 10:44 | 51.29878 | 19.91910 | 36312 ft | 404 kts | 348° |
| 2026-05-01 10:44 | 51.35230 | 19.89149 | 36318 ft | 404 kts | 348° |
| 2026-05-01 10:45 | 51.40588 | 19.86420 | 36331 ft | 404 kts | 348° |
| 2026-05-01 10:45 | 51.45953 | 19.83721 | 36329 ft | 404 kts | 348° |
| 2026-05-01 10:46 | 51.51326 | 19.81009 | 36330 ft | 405 kts | 348° |
| 2026-05-01 10:46 | 51.56697 | 19.78286 | 36329 ft | 405 kts | 348° |
| 2026-05-01 10:47 | 51.62038 | 19.75568 | 36332 ft | 405 kts | 348° |
| 2026-05-01 10:47 | 51.67410 | 19.72828 | 36331 ft | 405 kts | 348° |
| 2026-05-01 10:48 | 51.72794 | 19.70074 | 36331 ft | 404 kts | 347° |
| 2026-05-01 10:48 | 51.78166 | 19.67321 | 36343 ft | 405 kts | 347° |
| 2026-05-01 10:49 | 51.83539 | 19.64559 | 36346 ft | 406 kts | 347° |
| 2026-05-01 10:49 | 51.88927 | 19.61784 | 36342 ft | 407 kts | 347° |
| 2026-05-01 10:50 | 51.94322 | 19.58997 | 36339 ft | 407 kts | 347° |
| 2026-05-01 10:50 | 51.99719 | 19.56202 | 36337 ft | 408 kts | 347° |
| 2026-05-01 10:51 | 52.05095 | 19.53411 | 36337 ft | 408 kts | 347° |
| 2026-05-01 10:51 | 52.10506 | 19.50596 | 36337 ft | 408 kts | 347° |
| 2026-05-01 10:52 | 52.15935 | 19.47871 | 36335 ft | 407 kts | 348° |
| 2026-05-01 10:52 | 52.21356 | 19.45203 | 36337 ft | 407 kts | 348° |
| 2026-05-01 10:53 | 52.26767 | 19.42526 | 36339 ft | 406 kts | 347° |
| 2026-05-01 10:53 | 52.32169 | 19.39836 | 36338 ft | 406 kts | 347° |
| 2026-05-01 10:54 | 52.37572 | 19.37135 | 36339 ft | 405 kts | 347° |
| 2026-05-01 10:54 | 52.42952 | 19.34437 | 36337 ft | 404 kts | 347° |
| 2026-05-01 10:55 | 52.48334 | 19.31732 | 36339 ft | 404 kts | 347° |
| 2026-05-01 10:55 | 52.53710 | 19.29023 | 36317 ft | 404 kts | 347° |
| 2026-05-01 10:56 | 52.59076 | 19.26312 | 36337 ft | 404 kts | 347° |
| 2026-05-01 10:56 | 52.64459 | 19.23586 | 36338 ft | 405 kts | 347° |
| 2026-05-01 10:57 | 52.69844 | 19.20851 | 36346 ft | 405 kts | 347° |
| 2026-05-01 10:57 | 52.75201 | 19.18123 | 36345 ft | 406 kts | 347° |
| 2026-05-01 10:58 | 52.80631 | 19.15351 | 36350 ft | 406 kts | 347° |
| 2026-05-01 10:58 | 52.86026 | 19.12590 | 36345 ft | 407 kts | 347° |
| 2026-05-01 10:59 | 52.91423 | 19.09820 | 36348 ft | 407 kts | 347° |
| 2026-05-01 10:59 | 52.96801 | 19.07053 | 36317 ft | 407 kts | 346° |
| 2026-05-01 11:00 | 53.02263 | 19.04236 | 36372 ft | 410 kts | 346° |
| 2026-05-01 11:00 | 53.04958 | 19.02844 | 36513 ft | 414 kts | 346° |
| 2026-05-01 11:00 | 53.07705 | 19.01422 | 36810 ft | 413 kts | 346° |
| 2026-05-01 11:00 | 53.10439 | 19.00003 | 37194 ft | 411 kts | 346° |
| 2026-05-01 11:01 | 53.13162 | 18.98589 | 37527 ft | 410 kts | 346° |
| 2026-05-01 11:01 | 53.15881 | 18.97177 | 37828 ft | 409 kts | 346° |
| 2026-05-01 11:01 | 53.18603 | 18.95761 | 38105 ft | 409 kts | 346° |
| 2026-05-01 11:01 | 53.21309 | 18.94288 | 38360 ft | 410 kts | 344° |
| 2026-05-01 11:02 | 53.24016 | 18.92688 | 38340 ft | 414 kts | 343° |
| 2026-05-01 11:02 | 53.29431 | 18.89365 | 38349 ft | 414 kts | 343° |
| 2026-05-01 11:03 | 53.34790 | 18.86084 | 38352 ft | 408 kts | 343° |
| 2026-05-01 11:03 | 53.40120 | 18.82851 | 38345 ft | 407 kts | 343° |
| 2026-05-01 11:04 | 53.45442 | 18.79627 | 38354 ft | 407 kts | 343° |
| 2026-05-01 11:04 | 53.50767 | 18.76394 | 38361 ft | 407 kts | 343° |
| 2026-05-01 11:05 | 53.56096 | 18.73148 | 38367 ft | 408 kts | 342° |
| 2026-05-01 11:05 | 53.61408 | 18.69905 | 38363 ft | 409 kts | 342° |
| 2026-05-01 11:06 | 53.66768 | 18.66622 | 38360 ft | 410 kts | 342° |
| 2026-05-01 11:06 | 53.72140 | 18.63324 | 38354 ft | 411 kts | 342° |
| 2026-05-01 11:07 | 53.80137 | 18.57961 | 38339 ft | 413 kts | 339° |
| 2026-05-01 11:07 | 53.85397 | 18.54025 | 38354 ft | 413 kts | 338° |
| 2026-05-01 11:08 | 53.90660 | 18.50100 | 38352 ft | 413 kts | 339° |
| 2026-05-01 11:09 | 53.98562 | 18.44251 | 38355 ft | 413 kts | 339° |
| 2026-05-01 11:09 | 54.03820 | 18.40357 | 38350 ft | 412 kts | 339° |
| 2026-05-01 11:10 | 54.11664 | 18.34527 | 38349 ft | 411 kts | 339° |
| 2026-05-01 11:10 | 54.16914 | 18.30611 | 38352 ft | 411 kts | 339° |
| 2026-05-01 11:11 | 54.22144 | 18.26698 | 38343 ft | 410 kts | 338° |
| 2026-05-01 11:11 | 54.27371 | 18.22779 | 38352 ft | 410 kts | 338° |
| 2026-05-01 11:12 | 54.32600 | 18.18836 | 38344 ft | 411 kts | 338° |
| 2026-05-01 11:12 | 54.37824 | 18.14856 | 38346 ft | 411 kts | 338° |
| 2026-05-01 11:13 | 54.43052 | 18.10858 | 38354 ft | 412 kts | 338° |
| 2026-05-01 11:13 | 54.48286 | 18.06848 | 38349 ft | 412 kts | 338° |
| 2026-05-01 11:14 | 54.53519 | 18.02828 | 38349 ft | 412 kts | 338° |
| 2026-05-01 11:14 | 54.58760 | 17.98791 | 38353 ft | 412 kts | 338° |
| 2026-05-01 11:15 | 54.63956 | 17.94777 | 38349 ft | 412 kts | 338° |
| 2026-05-01 11:15 | 54.69191 | 17.90722 | 38362 ft | 413 kts | 338° |
| 2026-05-01 11:16 | 54.74433 | 17.86649 | 38362 ft | 413 kts | 338° |
| 2026-05-01 11:16 | 54.79680 | 17.82563 | 38358 ft | 413 kts | 337° |
| 2026-05-01 11:17 | 54.84916 | 17.78455 | 38362 ft | 413 kts | 337° |
| 2026-05-01 11:17 | 54.90154 | 17.74327 | 38361 ft | 413 kts | 337° |
| 2026-05-01 11:18 | 54.95391 | 17.70192 | 38352 ft | 413 kts | 337° |
| 2026-05-01 11:18 | 55.00629 | 17.66102 | 38363 ft | 413 kts | 338° |
| 2026-05-01 11:19 | 55.05899 | 17.62102 | 38359 ft | 413 kts | 338° |
| 2026-05-01 11:19 | 55.11169 | 17.58083 | 38359 ft | 414 kts | 338° |
| 2026-05-01 11:20 | 55.16441 | 17.54037 | 38357 ft | 414 kts | 338° |
| 2026-05-01 11:20 | 55.21714 | 17.49972 | 38356 ft | 414 kts | 337° |
| 2026-05-01 11:21 | 55.26084 | 17.46518 | 38356 ft | 415 kts | 337° |
| 2026-05-01 11:21 | 55.31338 | 17.42316 | 38348 ft | 415 kts | 337° |
| 2026-05-01 11:22 | 55.36595 | 17.38109 | 38335 ft | 415 kts | 336° |
| 2026-05-01 11:22 | 55.41853 | 17.33896 | 38346 ft | 415 kts | 336° |
| 2026-05-01 11:23 | 55.47108 | 17.29674 | 38345 ft | 415 kts | 336° |
| 2026-05-01 11:23 | 55.52365 | 17.25439 | 38340 ft | 416 kts | 336° |
| 2026-05-01 11:24 | 55.57629 | 17.21186 | 38337 ft | 416 kts | 336° |
| 2026-05-01 11:24 | 55.62998 | 17.17418 | 38330 ft | 415 kts | 347° |
| 2026-05-01 11:25 | 55.65835 | 17.16530 | 38339 ft | 414 kts | 354° |
| 2026-05-01 11:25 | 55.74472 | 17.16963 | 38324 ft | 414 kts | 3° |
| 2026-05-01 11:26 | 55.83106 | 17.17894 | 38324 ft | 414 kts | 2° |
| 2026-05-01 11:27 | 55.88829 | 17.18464 | 38321 ft | 414 kts | 2° |
| 2026-05-01 11:27 | 55.94595 | 17.19022 | 38306 ft | 414 kts | 2° |
| 2026-05-01 11:28 | 56.00349 | 17.19575 | 38315 ft | 414 kts | 2° |
| 2026-05-01 11:28 | 56.06109 | 17.20131 | 38316 ft | 414 kts | 2° |
| 2026-05-01 11:29 | 56.14745 | 17.20967 | 38308 ft | 414 kts | 2° |
| 2026-05-01 11:30 | 56.23387 | 17.21809 | 38306 ft | 415 kts | 2° |
| 2026-05-01 11:30 | 56.29155 | 17.22372 | 38302 ft | 415 kts | 2° |
| 2026-05-01 11:31 | 56.34876 | 17.22933 | 38299 ft | 415 kts | 2° |
| 2026-05-01 11:31 | 56.40646 | 17.23500 | 38296 ft | 414 kts | 2° |
| 2026-05-01 11:32 | 56.46403 | 17.24068 | 38305 ft | 414 kts | 2° |
| 2026-05-01 11:32 | 56.52161 | 17.24638 | 38289 ft | 414 kts | 2° |
| 2026-05-01 11:33 | 56.57920 | 17.25209 | 38293 ft | 414 kts | 2° |
| 2026-05-01 11:33 | 56.63667 | 17.25781 | 38289 ft | 413 kts | 2° |
| 2026-05-01 11:34 | 56.69417 | 17.26355 | 38288 ft | 413 kts | 2° |
| 2026-05-01 11:34 | 56.75159 | 17.26930 | 38286 ft | 413 kts | 2° |
| 2026-05-01 11:35 | 56.80891 | 17.27506 | 38285 ft | 413 kts | 2° |
| 2026-05-01 11:35 | 56.86592 | 17.28080 | 38281 ft | 412 kts | 2° |
| 2026-05-01 11:36 | 56.92353 | 17.28662 | 38279 ft | 412 kts | 2° |
| 2026-05-01 11:36 | 56.98044 | 17.29239 | 38277 ft | 412 kts | 2° |
| 2026-05-01 11:37 | 57.03770 | 17.29822 | 38278 ft | 412 kts | 2° |
| 2026-05-01 11:37 | 57.09500 | 17.30406 | 38274 ft | 412 kts | 2° |
| 2026-05-01 11:38 | 57.15223 | 17.30991 | 38274 ft | 412 kts | 2° |
| 2026-05-01 11:38 | 57.20944 | 17.31579 | 38266 ft | 412 kts | 2° |
| 2026-05-01 11:39 | 57.26629 | 17.32164 | 38266 ft | 411 kts | 2° |
| 2026-05-01 11:39 | 57.32347 | 17.32755 | 38269 ft | 411 kts | 1° |
| 2026-05-01 11:40 | 57.38060 | 17.33346 | 38272 ft | 411 kts | 1° |
| 2026-05-01 11:40 | 57.43797 | 17.33942 | 37823 ft | 415 kts | 2° |
| 2026-05-01 11:40 | 57.46654 | 17.34240 | 37462 ft | 408 kts | 2° |
| 2026-05-01 11:41 | 57.49471 | 17.34545 | 37059 ft | 402 kts | 3° |
| 2026-05-01 11:41 | 57.52229 | 17.35242 | 36671 ft | 398 kts | 9° |
| 2026-05-01 11:41 | 57.54924 | 17.36279 | 36306 ft | 393 kts | 10° |
| 2026-05-01 11:41 | 57.57580 | 17.37378 | 35917 ft | 389 kts | 11° |
| 2026-05-01 11:42 | 57.60212 | 17.38482 | 35537 ft | 385 kts | 10° |
| 2026-05-01 11:42 | 57.62815 | 17.39565 | 35156 ft | 381 kts | 10° |
| 2026-05-01 11:42 | 57.65394 | 17.40624 | 34785 ft | 378 kts | 10° |
| 2026-05-01 11:42 | 57.67953 | 17.41663 | 34418 ft | 375 kts | 10° |
| 2026-05-01 11:43 | 57.70462 | 17.42675 | 34020 ft | 372 kts | 10° |
| 2026-05-01 11:43 | 57.73008 | 17.43698 | 33620 ft | 368 kts | 10° |
| 2026-05-01 11:43 | 57.75473 | 17.44687 | 33257 ft | 364 kts | 10° |
| 2026-05-01 11:44 | 57.80386 | 17.46658 | 32530 ft | 358 kts | 10° |
| 2026-05-01 11:44 | 57.82812 | 17.47633 | 32188 ft | 355 kts | 9° |
| 2026-05-01 11:44 | 57.85210 | 17.48598 | 31834 ft | 351 kts | 9° |
| 2026-05-01 11:44 | 57.87603 | 17.49561 | 31498 ft | 353 kts | 9° |
| 2026-05-01 11:45 | 57.90048 | 17.50543 | 31169 ft | 367 kts | 9° |
| 2026-05-01 11:45 | 57.92574 | 17.51559 | 30805 ft | 374 kts | 9° |
| 2026-05-01 11:45 | 57.95104 | 17.52582 | 30423 ft | 370 kts | 9° |
| 2026-05-01 11:45 | 57.97616 | 17.53603 | 30014 ft | 367 kts | 9° |
| 2026-05-01 11:46 | 58.00092 | 17.54610 | 29627 ft | 362 kts | 9° |
| 2026-05-01 11:46 | 58.02536 | 17.55606 | 29255 ft | 357 kts | 9° |
| 2026-05-01 11:46 | 58.04950 | 17.56590 | 28896 ft | 352 kts | 9° |
| 2026-05-01 11:46 | 58.07335 | 17.57563 | 28530 ft | 348 kts | 9° |
| 2026-05-01 11:47 | 58.09686 | 17.58522 | 28181 ft | 344 kts | 9° |
| 2026-05-01 11:47 | 58.12013 | 17.59473 | 27825 ft | 340 kts | 9° |
| 2026-05-01 11:47 | 58.14318 | 17.60416 | 27477 ft | 337 kts | 9° |
| 2026-05-01 11:47 | 58.16594 | 17.61349 | 27136 ft | 333 kts | 9° |
| 2026-05-01 11:48 | 58.18853 | 17.62275 | 26794 ft | 330 kts | 9° |
| 2026-05-01 11:48 | 58.21087 | 17.63192 | 26463 ft | 328 kts | 9° |
| 2026-05-01 11:48 | 58.23314 | 17.64107 | 26138 ft | 327 kts | 8° |
| 2026-05-01 11:48 | 58.25534 | 17.65020 | 25812 ft | 327 kts | 8° |
| 2026-05-01 11:49 | 58.27783 | 17.65944 | 25493 ft | 336 kts | 8° |
| 2026-05-01 11:49 | 58.30065 | 17.66881 | 25157 ft | 342 kts | 9° |
| 2026-05-01 11:49 | 58.32391 | 17.67843 | 24800 ft | 340 kts | 9° |
| 2026-05-01 11:49 | 58.34691 | 17.68797 | 24452 ft | 337 kts | 8° |
| 2026-05-01 11:50 | 58.36969 | 17.69744 | 24112 ft | 334 kts | 8° |
| 2026-05-01 11:50 | 58.39223 | 17.70682 | 23767 ft | 331 kts | 8° |
| 2026-05-01 11:50 | 58.41466 | 17.71615 | 23360 ft | 328 kts | 8° |
| 2026-05-01 11:50 | 58.43686 | 17.72540 | 23010 ft | 325 kts | 8° |
| 2026-05-01 11:51 | 58.45881 | 17.73455 | 22687 ft | 320 kts | 8° |
| 2026-05-01 11:51 | 58.48049 | 17.74361 | 22360 ft | 317 kts | 8° |
| 2026-05-01 11:51 | 58.50188 | 17.75254 | 22024 ft | 313 kts | 7° |
| 2026-05-01 11:51 | 58.52306 | 17.76140 | 21716 ft | 310 kts | 7° |
| 2026-05-01 11:52 | 58.54408 | 17.77020 | 21389 ft | 307 kts | 7° |
| 2026-05-01 11:52 | 58.56484 | 17.77890 | 21071 ft | 304 kts | 7° |
| 2026-05-01 11:52 | 58.58546 | 17.78755 | 20753 ft | 302 kts | 7° |
| 2026-05-01 11:52 | 58.60601 | 17.79617 | 20439 ft | 302 kts | 7° |
| 2026-05-01 11:53 | 58.62632 | 17.80470 | 20139 ft | 303 kts | 7° |
| 2026-05-01 11:53 | 58.64713 | 17.81343 | 19839 ft | 311 kts | 7° |
| 2026-05-01 11:53 | 58.66851 | 17.82240 | 19535 ft | 317 kts | 7° |
| 2026-05-01 11:53 | 58.69030 | 17.83161 | 19188 ft | 315 kts | 7° |
| 2026-05-01 11:54 | 58.71137 | 17.84056 | 18855 ft | 313 kts | 6° |
| 2026-05-01 11:54 | 58.73279 | 17.84966 | 18529 ft | 310 kts | 6° |
| 2026-05-01 11:54 | 58.75348 | 17.85844 | 18169 ft | 308 kts | 6° |
| 2026-05-01 11:54 | 58.77430 | 17.86728 | 17820 ft | 305 kts | 6° |
| 2026-05-01 11:55 | 58.79494 | 17.87605 | 17482 ft | 302 kts | 6° |
| 2026-05-01 11:55 | 58.81532 | 17.88501 | 17147 ft | 301 kts | 9° |
| 2026-05-01 11:55 | 58.83490 | 17.89970 | 16944 ft | 302 kts | 18° |
| 2026-05-01 11:55 | 58.85381 | 17.91764 | 16724 ft | 306 kts | 20° |
| 2026-05-01 11:56 | 58.87296 | 17.93654 | 16497 ft | 311 kts | 20° |
| 2026-05-01 11:56 | 58.89235 | 17.95560 | 16264 ft | 312 kts | 20° |
| 2026-05-01 11:56 | 58.91171 | 17.97446 | 16028 ft | 311 kts | 20° |
| 2026-05-01 11:56 | 58.93103 | 17.99308 | 15795 ft | 309 kts | 20° |
| 2026-05-01 11:57 | 58.94998 | 18.01123 | 15559 ft | 307 kts | 20° |
| 2026-05-01 11:57 | 58.96305 | 18.02369 | 15240 ft | 312 kts | 20° |
| 2026-05-01 11:57 | 58.98876 | 18.04814 | 14805 ft | 310 kts | 20° |
| 2026-05-01 11:57 | 59.00798 | 18.06645 | 14534 ft | 305 kts | 20° |
| 2026-05-01 11:58 | 59.02688 | 18.08447 | 14280 ft | 301 kts | 20° |
| 2026-05-01 11:58 | 59.04564 | 18.10234 | 14007 ft | 299 kts | 19° |
| 2026-05-01 11:58 | 59.08281 | 18.13780 | 13447 ft | 296 kts | 20° |
| 2026-05-01 11:59 | 59.10170 | 18.15247 | 13183 ft | 288 kts | 5° |
| 2026-05-01 11:59 | 59.12128 | 18.15637 | 12961 ft | 281 kts | 358° |
| 2026-05-01 11:59 | 59.14071 | 18.15840 | 12710 ft | 281 kts | 357° |
| 2026-05-01 12:00 | 59.17973 | 18.16227 | 12231 ft | 281 kts | 357° |
| 2026-05-01 12:00 | 59.19922 | 18.16432 | 12005 ft | 281 kts | 358° |
| 2026-05-01 12:00 | 59.23841 | 18.16866 | 11515 ft | 283 kts | 358° |
| 2026-05-01 12:01 | 59.25810 | 18.17091 | 11258 ft | 283 kts | 358° |
| 2026-05-01 12:01 | 59.27759 | 18.17316 | 11013 ft | 284 kts | 358° |
| 2026-05-01 12:01 | 59.29726 | 18.17546 | 10765 ft | 284 kts | 358° |
| 2026-05-01 12:01 | 59.31701 | 18.17778 | 10525 ft | 284 kts | 358° |
| 2026-05-01 12:02 | 59.33666 | 18.18012 | 10273 ft | 280 kts | 358° |
| 2026-05-01 12:02 | 59.35594 | 18.18243 | 10035 ft | 276 kts | 358° |
| 2026-05-01 12:02 | 59.37493 | 18.18469 | 9772 ft | 271 kts | 358° |
| 2026-05-01 12:02 | 59.39364 | 18.18692 | 9524 ft | 266 kts | 358° |
| 2026-05-01 12:03 | 59.41199 | 18.18909 | 9302 ft | 264 kts | 358° |
| 2026-05-01 12:03 | 59.43030 | 18.19125 | 9073 ft | 264 kts | 358° |
| 2026-05-01 12:03 | 59.44867 | 18.19341 | 8855 ft | 264 kts | 358° |
| 2026-05-01 12:03 | 59.46706 | 18.19559 | 8622 ft | 265 kts | 358° |
| 2026-05-01 12:04 | 59.48545 | 18.19776 | 8412 ft | 264 kts | 358° |
| 2026-05-01 12:04 | 59.50383 | 18.19995 | 8172 ft | 265 kts | 358° |
| 2026-05-01 12:04 | 59.52226 | 18.20217 | 7947 ft | 265 kts | 359° |
| 2026-05-01 12:04 | 59.54063 | 18.20536 | 7718 ft | 266 kts | 3° |
| 2026-05-01 12:05 | 59.55892 | 18.21125 | 7485 ft | 267 kts | 5° |
| 2026-05-01 12:05 | 59.59510 | 18.22415 | 7031 ft | 264 kts | 5° |
| 2026-05-01 12:05 | 59.61312 | 18.23053 | 6776 ft | 262 kts | 5° |
| 2026-05-01 12:06 | 59.63101 | 18.23679 | 6573 ft | 260 kts | 5° |
| 2026-05-01 12:06 | 59.64877 | 18.24292 | 6331 ft | 258 kts | 5° |
| 2026-05-01 12:06 | 59.66638 | 18.24895 | 6096 ft | 256 kts | 5° |
| 2026-05-01 12:06 | 59.68393 | 18.25495 | 5883 ft | 255 kts | 5° |
| 2026-05-01 12:07 | 59.70134 | 18.26088 | 5616 ft | 254 kts | 5° |
| 2026-05-01 12:07 | 59.71884 | 18.26684 | 5322 ft | 255 kts | 5° |
| 2026-05-01 12:07 | 59.73636 | 18.26999 | 5071 ft | 250 kts | 349° |
| 2026-05-01 12:07 | 59.75198 | 18.25806 | 4857 ft | 239 kts | 320° |
| 2026-05-01 12:08 | 59.76200 | 18.23250 | 4544 ft | 237 kts | 293° |
| 2026-05-01 12:08 | 59.76750 | 18.20158 | 4195 ft | 239 kts | 284° |
| 2026-05-01 12:08 | 59.76844 | 18.16876 | 4001 ft | 235 kts | 268° |
| 2026-05-01 12:08 | 59.76801 | 18.13704 | 3785 ft | 226 kts | 271° |
| 2026-05-01 12:09 | 59.76797 | 18.10572 | 3309 ft | 228 kts | 271° |
| 2026-05-01 12:09 | 59.76809 | 18.07426 | 2866 ft | 227 kts | 271° |
| 2026-05-01 12:09 | 59.76780 | 18.04329 | 2567 ft | 224 kts | 261° |
| 2026-05-01 12:09 | 59.76055 | 18.01695 | 2471 ft | 220 kts | 224° |
| 2026-05-01 12:10 | 59.74749 | 18.00079 | 2102 ft | 219 kts | 211° |
| 2026-05-01 12:10 | 59.72019 | 17.98483 | 1566 ft | 193 kts | 193° |
| 2026-05-01 12:10 | 59.70742 | 17.98014 | 1310 ft | 178 kts | 193° |
| 2026-05-01 12:11 | 59.68443 | 17.97178 | 841 ft | 159 kts | 194° |
| 2026-05-01 12:11 | 59.67409 | 17.96807 | 678 ft | 142 kts | 192° |
| 2026-05-01 12:11 | 59.66466 | 17.96468 | 481 ft | 136 kts | 195° |
| 2026-05-01 12:12 | 59.65499 | 17.96110 | 306 ft | 145 kts | 195° |
| 2026-05-01 12:12 | 59.64845 | 17.95883 | 181 ft | 143 kts | 194° |
| 2026-05-01 12:12 | 59.63938 | 17.95543 | 143 ft | 111 kts | 190° |
| 2026-05-01 12:12 | 59.63393 | 17.95350 | 141 ft | 52 kts | 191° |
| 2026-05-01 12:13 | 59.63163 | 17.95264 | 142 ft | 23 kts | 191° |
| 2026-05-01 12:13 | 59.63014 | 17.95157 | 143 ft | 23 kts | 209° |
| 2026-05-01 12:13 | 59.62895 | 17.94975 | 138 ft | 16 kts | 222° |
| 2026-05-01 12:13 | 59.62852 | 17.94886 | 137 ft | 8 kts | 240° |
| 2026-05-01 12:14 | 59.62857 | 17.94785 | 137 ft | 8 kts | 308° |
| 2026-05-01 12:14 | 59.62909 | 17.94765 | 137 ft | 9 kts | 11° |
| 2026-05-01 12:14 | 59.62984 | 17.94792 | 137 ft | 14 kts | 10° |
| 2026-05-01 12:14 | 59.63095 | 17.94832 | 137 ft | 19 kts | 10° |
| 2026-05-01 12:15 | 59.63241 | 17.94885 | 137 ft | 24 kts | 10° |
| 2026-05-01 12:15 | 59.63418 | 17.94947 | 137 ft | 28 kts | 10° |
| 2026-05-01 12:15 | 59.63603 | 17.95015 | 137 ft | 25 kts | 10° |
| 2026-05-01 12:15 | 59.63771 | 17.95076 | 137 ft | 24 kts | 10° |
| 2026-05-01 12:16 | 59.63927 | 17.95133 | 137 ft | 23 kts | 10° |
| 2026-05-01 12:16 | 59.64080 | 17.95187 | 137 ft | 22 kts | 11° |
| 2026-05-01 12:16 | 59.64228 | 17.95240 | 137 ft | 21 kts | 10° |
| 2026-05-01 12:16 | 59.64372 | 17.95294 | 137 ft | 21 kts | 11° |
| 2026-05-01 12:17 | 59.64520 | 17.95347 | 137 ft | 23 kts | 9° |
| 2026-05-01 12:17 | 59.64688 | 17.95409 | 137 ft | 26 kts | 10° |
| 2026-05-01 12:17 | 59.64876 | 17.95474 | 140 ft | 28 kts | 11° |
| 2026-05-01 12:17 | 59.65073 | 17.95495 | 137 ft | 27 kts | 347° |
| 2026-05-01 12:18 | 59.65252 | 17.95405 | 137 ft | 26 kts | 345° |
| 2026-05-01 12:18 | 59.65417 | 17.95319 | 137 ft | 24 kts | 345° |
| 2026-05-01 12:18 | 59.65572 | 17.95236 | 137 ft | 23 kts | 346° |
| 2026-05-01 12:18 | 59.65715 | 17.95157 | 137 ft | 18 kts | 333° |
| 2026-05-01 12:19 | 59.65740 | 17.94942 | 137 ft | 17 kts | 257° |
| 2026-05-01 12:19 | 59.65711 | 17.94715 | 137 ft | 17 kts | 256° |
| 2026-05-01 12:19 | 59.65683 | 17.94500 | 137 ft | 16 kts | 255° |
| 2026-05-01 12:19 | 59.65655 | 17.94288 | 137 ft | 16 kts | 256° |
| 2026-05-01 12:20 | 59.65627 | 17.94055 | 137 ft | 19 kts | 256° |
| 2026-05-01 12:20 | 59.65591 | 17.93782 | 137 ft | 22 kts | 256° |
| 2026-05-01 12:20 | 59.65551 | 17.93466 | 137 ft | 25 kts | 256° |
| 2026-05-01 12:20 | 59.65507 | 17.93119 | 137 ft | 27 kts | 256° |
| 2026-05-01 12:21 | 59.65452 | 17.92801 | 137 ft | 21 kts | 247° |
| 2026-05-01 12:21 | 59.65363 | 17.92693 | 137 ft | 19 kts | 154° |
| 2026-05-01 12:21 | 59.65266 | 17.92796 | 137 ft | 9 kts | 135° |
| 2026-05-01 12:21 | 59.65269 | 17.92863 | 137 ft | 5 kts | 70° |
| 2026-05-01 12:22 | 59.65283 | 17.92932 | 137 ft | 3 kts | 68° |
| 2026-05-01 12:22 | 59.65286 | 17.92946 | 137 ft | 0 kts | 68° |